Time;durP1;ratioP1;P1;durP2;ratioP2;P2;SDS_P1;SDS_P2;PMS_P1;PMS_P2;Temp;Humidity;BMP_temperature;BMP_pressure;BME280_temperature;BME280_humidity;BME280_pressure;Samples;Min_cycle;Max_cycle;Signal;HPM_P1;HPM_P2
2023/08/24 00:02:06;;;;;;;10.53;6.80;;;20.00;99.90;;;;;;5068044;28;20456;-58
2023/08/24 00:04:32;;;;;;;8.60;6.37;;;20.00;99.90;;;;;;5088250;28;20238;-57
2023/08/24 00:06:58;;;;;;;10.20;6.70;;;19.90;99.90;;;;;;5088555;28;20442;-58
2023/08/24 00:09:24;;;;;;;8.80;7.33;;;19.90;99.90;;;;;;5064194;28;20431;-58
2023/08/24 00:11:50;;;;;;;11.60;6.53;;;19.90;99.90;;;;;;5084318;28;20201;-58
2023/08/24 00:14:15;;;;;;;7.80;6.17;;;19.90;99.90;;;;;;5084314;28;20471;-58
2023/08/24 00:16:41;;;;;;;9.90;7.00;;;19.90;99.90;;;;;;5082223;28;20178;-58
2023/08/24 00:19:07;;;;;;;11.27;7.57;;;19.80;99.90;;;;;;5084011;28;20173;-58
2023/08/24 00:21:33;;;;;;;10.77;7.17;;;19.80;99.90;;;;;;5072624;28;20451;-58
2023/08/24 00:23:59;;;;;;;12.47;7.13;;;19.80;99.90;;;;;;5085091;28;20235;-58
2023/08/24 00:26:25;;;;;;;11.00;8.40;;;19.70;99.90;;;;;;5091257;28;20191;-59
2023/08/24 00:28:51;;;;;;;9.77;8.23;;;19.70;99.90;;;;;;5085405;28;20435;-59
2023/08/24 00:31:17;;;;;;;9.60;7.30;;;19.70;99.90;;;;;;5087812;28;20447;-58
2023/08/24 00:33:43;;;;;;;9.87;6.27;;;19.70;99.90;;;;;;5065957;28;20261;-58
2023/08/24 00:36:09;;;;;;;12.90;7.10;;;19.60;99.90;;;;;;5089772;28;20522;-59
2023/08/24 00:38:34;;;;;;;9.23;7.10;;;19.60;99.90;;;;;;5089631;28;20216;-58
2023/08/24 00:41:00;;;;;;;8.30;6.50;;;19.60;99.90;;;;;;5083099;28;20197;-59
2023/08/24 00:43:27;;;;;;;9.70;7.13;;;19.60;99.90;;;;;;5087532;28;20239;-58
2023/08/24 00:45:55;;;;;;;8.77;6.77;;;19.60;99.90;;;;;;5086483;28;20798;-59
2023/08/24 00:48:25;;;;;;;9.40;7.23;;;19.50;99.90;;;;;;5069947;28;20477;-58
2023/08/24 00:50:59;;;;;;;13.23;7.67;;;19.60;99.90;;;;;;5082776;28;20622;-58
2023/08/24 00:53:26;;;;;;;9.60;8.43;;;19.50;99.90;;;;;;5093050;28;20462;-59
2023/08/24 00:55:52;;;;;;;17.10;7.33;;;19.50;99.90;;;;;;5089021;28;20510;-59
2023/08/24 00:58:19;;;;;;;21.43;7.37;;;19.50;99.90;;;;;;5090225;28;20486;-59
2023/08/24 01:00:45;;;;;;;14.00;6.70;;;19.50;99.90;;;;;;5093600;28;20474;-60
2023/08/24 01:03:10;;;;;;;12.03;7.80;;;19.40;99.90;;;;;;5088873;28;21012;-59
2023/08/24 01:05:36;;;;;;;9.60;6.70;;;19.40;99.90;;;;;;5088972;28;20189;-59
2023/08/24 01:08:02;;;;;;;7.47;6.63;;;19.40;99.90;;;;;;5089908;28;20650;-59
2023/08/24 01:10:40;;;;;;;8.37;7.17;;;19.30;99.90;;;;;;5091439;28;20198;-60
2023/08/24 01:13:09;;;;;;;12.00;6.60;;;19.30;99.90;;;;;;5093985;28;20193;-59
2023/08/24 01:16:00;;;;;;;13.17;6.97;;;19.30;99.90;;;;;;5085799;28;20477;-60
2023/08/24 01:18:28;;;;;;;11.43;7.13;;;19.20;99.90;;;;;;5089752;28;20455;-59
2023/08/24 01:20:56;;;;;;;13.50;7.50;;;19.20;99.90;;;;;;5087374;28;20458;-59
2023/08/24 01:23:41;;;;;;;8.63;7.50;;;19.10;99.90;;;;;;5086437;28;20408;-58
2023/08/24 01:26:14;;;;;;;9.47;8.17;;;19.10;99.90;;;;;;5090832;28;20411;-59
2023/08/24 01:28:42;;;;;;;7.30;6.60;;;19.10;99.90;;;;;;5086990;28;20463;-58
2023/08/24 01:31:08;;;;;;;8.57;7.37;;;19.00;99.90;;;;;;5087057;28;20466;-59
2023/08/24 01:33:34;;;;;;;9.27;7.77;;;19.00;99.90;;;;;;5091039;28;20928;-60
2023/08/24 01:36:00;;;;;;;13.10;7.40;;;19.00;99.90;;;;;;5090369;28;20175;-59
2023/08/24 01:38:26;;;;;;;9.10;7.00;;;19.00;99.90;;;;;;5087624;28;20443;-57
2023/08/24 01:41:16;;;;;;;13.50;7.80;;;19.00;99.90;;;;;;5086100;28;20479;-57
2023/08/24 01:43:45;;;;;;;9.43;8.10;;;19.00;99.90;;;;;;5086274;28;21065;-58
2023/08/24 01:46:14;;;;;;;19.80;8.50;;;18.90;99.90;;;;;;5089813;28;20415;-57
2023/08/24 01:48:40;;;;;;;8.13;7.27;;;18.90;99.90;;;;;;5083210;28;20408;-58
2023/08/24 01:51:07;;;;;;;11.50;6.93;;;18.90;99.90;;;;;;5089738;28;20861;-57
2023/08/24 01:53:33;;;;;;;11.80;7.83;;;18.90;99.90;;;;;;5092446;28;20793;-57
2023/08/24 01:55:59;;;;;;;10.47;6.97;;;18.90;99.90;;;;;;5078093;28;20432;-57
2023/08/24 01:58:24;;;;;;;8.83;6.70;;;18.90;99.90;;;;;;5081782;28;20950;-58
2023/08/24 02:00:50;;;;;;;13.60;7.80;;;18.90;99.90;;;;;;5071302;28;20197;-58
2023/08/24 02:03:15;;;;;;;11.60;7.50;;;18.80;99.90;;;;;;5086367;28;20230;-57
2023/08/24 02:05:41;;;;;;;10.23;7.50;;;18.80;99.90;;;;;;5088061;28;20185;-59
2023/08/24 02:08:06;;;;;;;8.20;7.17;;;18.80;99.90;;;;;;5095339;28;20215;-57
2023/08/24 02:10:32;;;;;;;14.90;8.87;;;18.80;99.90;;;;;;5088351;28;20208;-57
2023/08/24 02:12:58;;;;;;;11.63;8.00;;;18.80;99.90;;;;;;5090684;28;20270;-58
2023/08/24 02:15:23;;;;;;;11.40;7.20;;;18.80;99.90;;;;;;5086512;28;20198;-57
2023/08/24 02:17:49;;;;;;;15.20;7.90;;;18.80;99.90;;;;;;5090131;28;20177;-58
2023/08/24 02:20:15;;;;;;;8.83;7.60;;;18.80;99.90;;;;;;5086150;28;20678;-56
2023/08/24 02:22:41;;;;;;;9.20;7.57;;;18.70;99.90;;;;;;5092969;28;20250;-58
2023/08/24 02:25:07;;;;;;;12.13;8.07;;;18.70;99.90;;;;;;5089296;28;20427;-57
2023/08/24 02:27:33;;;;;;;9.30;7.60;;;18.60;99.90;;;;;;5087186;28;20647;-56
2023/08/24 02:29:58;;;;;;;11.93;8.10;;;18.60;99.90;;;;;;5090170;28;20458;-58
2023/08/24 02:32:24;;;;;;;10.27;8.63;;;18.60;99.90;;;;;;5085006;28;20510;-57
2023/08/24 02:34:50;;;;;;;17.00;7.00;;;18.60;99.90;;;;;;5092754;28;20220;-58
2023/08/24 02:37:15;;;;;;;11.93;7.00;;;18.50;99.90;;;;;;5087800;28;20201;-58
2023/08/24 02:39:41;;;;;;;14.93;8.27;;;18.50;99.90;;;;;;5088460;28;20199;-58
2023/08/24 02:42:06;;;;;;;8.20;7.03;;;18.50;99.90;;;;;;5088200;28;20646;-58
2023/08/24 02:44:32;;;;;;;9.70;6.83;;;18.50;99.90;;;;;;5069460;28;20192;-62
2023/08/24 02:46:58;;;;;;;11.60;7.37;;;18.50;99.90;;;;;;5089693;28;20182;-58
2023/08/24 02:49:23;;;;;;;11.60;7.70;;;18.50;99.90;;;;;;5086272;28;20174;-57
2023/08/24 02:51:49;;;;;;;12.83;7.47;;;18.50;99.90;;;;;;5084538;28;20916;-58
2023/08/24 02:54:15;;;;;;;14.37;7.97;;;18.40;99.90;;;;;;5087529;28;20201;-58
2023/08/24 02:56:40;;;;;;;10.33;7.80;;;18.40;99.90;;;;;;5084166;28;20174;-58
2023/08/24 02:59:06;;;;;;;8.87;7.87;;;18.40;99.90;;;;;;5088766;28;20603;-58
2023/08/24 03:01:32;;;;;;;9.70;7.83;;;18.40;99.90;;;;;;5071075;28;20197;-58
2023/08/24 03:03:57;;;;;;;8.50;7.67;;;18.40;99.90;;;;;;5087574;28;20197;-57
2023/08/24 03:06:26;;;;;;;8.97;7.90;;;18.40;99.90;;;;;;5084817;28;20169;-58
2023/08/24 03:08:52;;;;;;;10.17;8.10;;;18.30;99.90;;;;;;5084439;28;20638;-58
2023/08/24 03:11:17;;;;;;;10.17;7.70;;;18.30;99.90;;;;;;5092160;28;20455;-58
2023/08/24 03:13:43;;;;;;;13.13;7.63;;;18.30;99.90;;;;;;5087634;28;20198;-57
2023/08/24 03:16:09;;;;;;;13.87;7.33;;;18.30;99.90;;;;;;5070105;28;20630;-58
2023/08/24 03:18:34;;;;;;;11.37;8.13;;;18.30;99.90;;;;;;5085909;28;20185;-57
2023/08/24 03:21:01;;;;;;;9.07;8.17;;;18.30;99.90;;;;;;5086876;28;20748;-58
2023/08/24 03:23:27;;;;;;;10.43;7.90;;;18.30;99.90;;;;;;5089110;28;20165;-59
2023/08/24 03:25:52;;;;;;;13.87;7.30;;;18.30;99.90;;;;;;5086977;28;20822;-58
2023/08/24 03:28:21;;;;;;;11.50;7.47;;;18.30;99.90;;;;;;5090964;28;20177;-58
2023/08/24 03:30:48;;;;;;;15.37;7.87;;;18.30;99.90;;;;;;5088478;28;20280;-58
2023/08/24 03:33:14;;;;;;;9.30;7.63;;;18.30;99.90;;;;;;5088188;28;20529;-58
2023/08/24 03:35:40;;;;;;;8.83;7.13;;;18.30;99.90;;;;;;5084704;28;20459;-59
2023/08/24 03:38:06;;;;;;;9.70;7.43;;;18.30;99.90;;;;;;5093500;28;20201;-58
2023/08/24 03:40:32;;;;;;;9.57;7.50;;;18.30;99.90;;;;;;5087980;28;20479;-59
2023/08/24 03:42:57;;;;;;;10.60;8.63;;;18.30;99.90;;;;;;5084053;28;20178;-57
2023/08/24 03:45:23;;;;;;;9.30;8.10;;;18.30;99.90;;;;;;5086487;28;20186;-57
2023/08/24 03:47:49;;;;;;;10.13;7.20;;;18.30;99.90;;;;;;5092498;28;20628;-59
2023/08/24 03:50:15;;;;;;;8.63;7.40;;;18.30;99.90;;;;;;5081959;28;20198;-58
2023/08/24 03:52:41;;;;;;;9.40;8.00;;;18.30;99.90;;;;;;5088179;28;20424;-57
2023/08/24 03:55:07;;;;;;;11.93;8.43;;;18.30;99.90;;;;;;5085951;28;20894;-58
2023/08/24 03:57:33;;;;;;;20.97;8.70;;;18.30;99.90;;;;;;5089365;28;20181;-57
2023/08/24 03:59:59;;;;;;;10.23;8.50;;;18.30;99.90;;;;;;5083013;28;20470;-59
2023/08/24 04:02:24;;;;;;;9.67;8.13;;;18.20;99.90;;;;;;5088695;28;20271;-57
2023/08/24 04:04:53;;;;;;;12.13;8.43;;;18.20;99.90;;;;;;5091393;28;20181;-58
2023/08/24 04:07:19;;;;;;;13.47;7.80;;;18.20;99.90;;;;;;5086986;28;20208;-58
2023/08/24 04:09:45;;;;;;;8.37;7.57;;;18.20;99.90;;;;;;5079045;28;20455;-58
2023/08/24 04:12:11;;;;;;;12.50;8.10;;;18.20;99.90;;;;;;5095544;28;20203;-59
2023/08/24 04:14:36;;;;;;;9.07;6.90;;;18.20;99.90;;;;;;5086238;28;20532;-57
2023/08/24 04:17:02;;;;;;;10.30;7.03;;;18.20;99.90;;;;;;5082085;28;20170;-60
2023/08/24 04:19:28;;;;;;;10.97;8.00;;;18.20;99.90;;;;;;5087264;28;20249;-58
2023/08/24 04:21:53;;;;;;;9.70;8.00;;;18.20;99.90;;;;;;5088254;28;20272;-57
2023/08/24 04:24:19;;;;;;;8.47;7.20;;;18.20;99.90;;;;;;5087061;28;20186;-58
2023/08/24 04:26:44;;;;;;;12.93;7.80;;;18.20;99.90;;;;;;5086345;28;20178;-60
2023/08/24 04:29:10;;;;;;;9.33;7.80;;;18.20;99.90;;;;;;5087208;28;20712;-58
2023/08/24 04:31:37;;;;;;;9.90;8.50;;;18.10;99.90;;;;;;5086462;28;20709;-58
2023/08/24 04:34:04;;;;;;;9.80;8.13;;;18.10;99.90;;;;;;5083585;28;20199;-58
2023/08/24 04:36:29;;;;;;;12.13;8.63;;;18.10;99.90;;;;;;5090730;28;20420;-58
2023/08/24 04:38:55;;;;;;;17.47;9.03;;;18.00;99.90;;;;;;5088548;28;21034;-58
2023/08/24 04:41:20;;;;;;;19.87;8.80;;;18.00;99.90;;;;;;5087637;28;20202;-59
2023/08/24 04:43:46;;;;;;;16.00;8.10;;;18.00;99.90;;;;;;5089372;28;20177;-58
2023/08/24 04:46:12;;;;;;;13.87;8.70;;;18.00;99.90;;;;;;5087543;28;20174;-58
2023/08/24 04:48:37;;;;;;;10.73;8.70;;;18.00;99.90;;;;;;5084368;28;20201;-58
2023/08/24 04:51:03;;;;;;;15.03;8.60;;;18.00;99.90;;;;;;5085680;28;20197;-58
2023/08/24 04:53:29;;;;;;;9.17;8.23;;;18.00;99.90;;;;;;5085853;28;20182;-58
2023/08/24 04:55:55;;;;;;;10.17;8.17;;;18.00;99.90;;;;;;5082819;28;20209;-58
2023/08/24 04:58:21;;;;;;;9.50;8.43;;;18.00;99.90;;;;;;5069295;28;20162;-57
2023/08/24 05:00:48;;;;;;;15.87;8.50;;;18.00;99.90;;;;;;5067505;28;20190;-58
2023/08/24 05:03:14;;;;;;;10.13;8.30;;;18.00;99.90;;;;;;5086519;28;20424;-58
2023/08/24 05:05:39;;;;;;;9.77;8.80;;;18.00;99.90;;;;;;5067819;28;20424;-58
2023/08/24 05:08:06;;;;;;;14.30;8.70;;;18.00;99.90;;;;;;5086066;28;20674;-58
2023/08/24 05:10:32;;;;;;;10.53;8.40;;;18.10;99.90;;;;;;5087233;28;20202;-59
2023/08/24 05:12:58;;;;;;;13.77;8.70;;;18.10;99.90;;;;;;5084871;28;20439;-58
2023/08/24 05:15:24;;;;;;;13.50;8.83;;;18.10;99.90;;;;;;5086457;28;20827;-58
2023/08/24 05:17:52;;;;;;;16.73;8.90;;;18.20;99.90;;;;;;5087863;28;20174;-58
2023/08/24 05:20:18;;;;;;;10.87;8.37;;;18.20;99.90;;;;;;5089008;28;20196;-58
2023/08/24 05:22:44;;;;;;;9.77;8.50;;;18.20;99.90;;;;;;5083130;28;20464;-59
2023/08/24 05:25:09;;;;;;;13.47;8.50;;;18.30;99.90;;;;;;5083900;28;21168;-58
2023/08/24 05:27:35;;;;;;;14.57;7.80;;;18.30;99.90;;;;;;5085126;28;20189;-59
2023/08/24 05:30:00;;;;;;;9.70;7.73;;;18.30;99.90;;;;;;5087652;28;20221;-58
2023/08/24 05:32:26;;;;;;;8.80;7.90;;;18.40;99.90;;;;;;5086785;28;20519;-58
2023/08/24 05:34:51;;;;;;;8.80;7.83;;;18.40;99.90;;;;;;5084878;28;20201;-58
2023/08/24 05:37:17;;;;;;;10.17;7.90;;;18.40;99.90;;;;;;5091006;28;20178;-59
2023/08/24 05:39:43;;;;;;;12.53;7.90;;;18.40;99.90;;;;;;5085257;28;20182;-59
2023/08/24 05:42:09;;;;;;;8.73;7.33;;;18.40;99.90;;;;;;5087368;28;20162;-57
2023/08/24 05:44:34;;;;;;;12.00;8.53;;;18.40;99.90;;;;;;5088936;28;20220;-57
2023/08/24 05:47:00;;;;;;;9.80;7.80;;;18.40;99.90;;;;;;5091757;28;20447;-58
2023/08/24 05:49:26;;;;;;;12.40;8.53;;;18.40;99.90;;;;;;5087885;28;20234;-58
2023/08/24 05:51:52;;;;;;;11.93;8.37;;;18.30;99.90;;;;;;5068810;28;20210;-58
2023/08/24 05:54:21;;;;;;;16.23;9.00;;;18.30;99.90;;;;;;5090795;28;20677;-59
2023/08/24 05:56:47;;;;;;;9.77;8.00;;;18.30;99.90;;;;;;5086491;28;20420;-59
2023/08/24 05:59:14;;;;;;;12.63;8.53;;;18.30;99.90;;;;;;5088009;28;20434;-59
2023/08/24 06:01:41;;;;;;;13.10;8.47;;;18.40;99.90;;;;;;5084531;28;20979;-59
2023/08/24 06:04:07;;;;;;;9.50;7.53;;;18.40;99.90;;;;;;5083070;28;20435;-61
2023/08/24 06:06:33;;;;;;;11.50;8.87;;;18.40;99.90;;;;;;5088078;28;20444;-61
2023/08/24 06:08:59;;;;;;;10.10;8.57;;;18.50;99.90;;;;;;5086692;28;20936;-60
2023/08/24 06:11:24;;;;;;;10.57;8.57;;;18.60;99.90;;;;;;5088053;28;20205;-60
2023/08/24 06:13:53;;;;;;;11.10;7.67;;;18.70;99.90;;;;;;5089857;28;20193;-61
2023/08/24 06:16:19;;;;;;;15.13;9.13;;;18.80;99.90;;;;;;5086955;28;20189;-60
2023/08/24 06:18:44;;;;;;;11.93;8.60;;;18.90;99.90;;;;;;5085368;28;20596;-61
2023/08/24 06:21:10;;;;;;;18.97;9.47;;;19.00;99.90;;;;;;5087853;28;20205;-61
2023/08/24 06:23:35;;;;;;;13.93;9.53;;;19.10;99.90;;;;;;5090932;28;20181;-62
2023/08/24 06:26:01;;;;;;;12.20;8.53;;;19.30;99.90;;;;;;5083419;28;20251;-61
2023/08/24 06:28:27;;;;;;;14.67;8.67;;;19.40;99.90;;;;;;5078220;28;20189;-61
2023/08/24 06:30:55;;;;;;;14.27;8.40;;;19.50;99.90;;;;;;5087263;28;20224;-61
2023/08/24 06:33:21;;;;;;;13.83;8.77;;;19.60;99.90;;;;;;5084536;28;20430;-65
2023/08/24 06:35:46;;;;;;;11.17;8.80;;;19.70;99.90;;;;;;5077547;28;20472;-60
2023/08/24 06:38:13;;;;;;;10.57;8.90;;;19.80;99.90;;;;;;5079290;28;20257;-60
2023/08/24 06:40:39;;;;;;;14.53;8.60;;;19.90;99.90;;;;;;5080501;28;20723;-60
2023/08/24 06:43:05;;;;;;;13.93;8.90;;;19.90;99.90;;;;;;5060828;28;20961;-61
2023/08/24 06:45:31;;;;;;;10.70;8.50;;;19.90;99.90;;;;;;5085463;28;20607;-60
2023/08/24 06:47:56;;;;;;;16.10;8.60;;;20.00;99.90;;;;;;5071639;28;20193;-60
2023/08/24 06:50:22;;;;;;;24.20;9.40;;;20.00;99.90;;;;;;5085188;28;20912;-60
2023/08/24 06:52:48;;;;;;;16.87;9.33;;;20.10;99.90;;;;;;5087356;28;20174;-62
2023/08/24 06:55:13;;;;;;;11.93;9.33;;;20.20;99.90;;;;;;5079751;28;20209;-60
2023/08/24 06:57:40;;;;;;;9.93;8.40;;;20.20;99.90;;;;;;5091921;28;20181;-59
2023/08/24 07:00:08;;;;;;;10.70;8.83;;;20.20;99.90;;;;;;5090340;28;20193;-62
2023/08/24 07:02:34;;;;;;;9.03;8.13;;;20.30;99.90;;;;;;5087316;28;20446;-63
2023/08/24 07:05:00;;;;;;;10.60;8.77;;;20.40;99.90;;;;;;5066641;28;20762;-62
2023/08/24 07:07:26;;;;;;;8.63;7.73;;;20.40;99.90;;;;;;5093741;28;20806;-60
2023/08/24 07:09:52;;;;;;;14.63;9.20;;;20.50;99.90;;;;;;5084204;28;20427;-62
2023/08/24 07:12:17;;;;;;;13.83;7.77;;;20.70;99.90;;;;;;5078367;28;20260;-64
2023/08/24 07:14:43;;;;;;;18.07;9.87;;;20.80;99.90;;;;;;5080520;28;20201;-59
2023/08/24 07:17:08;;;;;;;14.70;9.10;;;20.90;99.90;;;;;;5085127;28;20181;-62
2023/08/24 07:19:35;;;;;;;12.07;9.20;;;21.00;99.90;;;;;;5062200;28;20185;-57
2023/08/24 07:22:01;;;;;;;11.60;9.60;;;21.10;99.90;;;;;;5081300;28;20436;-62
2023/08/24 07:24:28;;;;;;;10.63;9.07;;;21.10;99.90;;;;;;5085776;28;20221;-60
2023/08/24 07:26:54;;;;;;;10.10;8.00;;;21.20;99.90;;;;;;5092151;28;20161;-59
2023/08/24 07:29:20;;;;;;;11.33;8.23;;;21.30;99.90;;;;;;5085808;28;20432;-59
2023/08/24 07:31:46;;;;;;;10.77;7.90;;;21.30;99.60;;;;;;5093381;28;20681;-64
2023/08/24 07:34:12;;;;;;;12.03;8.40;;;21.40;99.40;;;;;;5086093;28;20459;-65
2023/08/24 07:36:37;;;;;;;11.30;7.73;;;21.40;99.80;;;;;;5084573;28;20197;-63
2023/08/24 07:39:03;;;;;;;10.83;7.47;;;21.50;99.30;;;;;;5089484;28;20186;-59
2023/08/24 07:41:29;;;;;;;9.60;7.27;;;21.50;99.50;;;;;;5087205;28;20202;-60
2023/08/24 07:43:54;;;;;;;16.70;8.20;;;21.70;99.20;;;;;;5088490;28;20259;-61
2023/08/24 07:46:20;;;;;;;13.37;8.67;;;21.80;97.40;;;;;;5090533;28;20178;-60
2023/08/24 07:48:46;;;;;;;11.73;8.57;;;21.90;95.80;;;;;;5089429;28;20170;-64
2023/08/24 07:51:11;;;;;;;11.10;8.20;;;22.10;93.90;;;;;;5082369;28;20190;-60
2023/08/24 07:53:37;;;;;;;12.73;8.10;;;22.20;93.90;;;;;;5090887;28;20178;-59
2023/08/24 07:56:02;;;;;;;12.30;8.87;;;22.40;93.00;;;;;;5088953;28;20196;-60
2023/08/24 07:58:28;;;;;;;15.97;8.30;;;22.50;92.20;;;;;;5086374;28;20978;-64
2023/08/24 08:00:54;;;;;;;17.33;8.13;;;22.70;92.30;;;;;;5091472;28;20739;-60
2023/08/24 08:03:20;;;;;;;10.40;8.07;;;22.90;91.30;;;;;;5088271;28;20184;-60
2023/08/24 08:05:47;;;;;;;15.83;8.27;;;23.00;89.50;;;;;;5086839;28;20663;-61
2023/08/24 08:08:16;;;;;;;10.93;7.60;;;23.00;86.20;;;;;;5082632;28;20458;-61
2023/08/24 08:10:42;;;;;;;11.57;7.67;;;23.10;85.90;;;;;;5086211;28;20955;-64
2023/08/24 08:13:10;;;;;;;8.90;7.67;;;23.10;85.40;;;;;;5085467;28;20786;-63
2023/08/24 08:15:38;;;;;;;10.27;7.57;;;23.10;84.60;;;;;;5086837;28;20463;-59
2023/08/24 08:18:04;;;;;;;15.63;8.20;;;23.10;84.60;;;;;;5088062;28;20434;-59
2023/08/24 08:20:30;;;;;;;10.70;7.90;;;23.10;84.20;;;;;;5088957;28;20444;-59
2023/08/24 08:22:56;;;;;;;9.87;8.00;;;23.20;85.30;;;;;;5087391;28;20845;-61
2023/08/24 08:25:22;;;;;;;19.43;8.10;;;23.30;84.20;;;;;;5082291;28;20467;-59
2023/08/24 08:27:48;;;;;;;12.70;7.07;;;23.30;84.70;;;;;;5088170;28;20188;-62
2023/08/24 08:30:15;;;;;;;10.47;7.90;;;23.40;85.00;;;;;;5084853;28;20204;-61
2023/08/24 08:32:40;;;;;;;13.50;8.30;;;23.60;84.10;;;;;;5087305;28;20431;-59
2023/08/24 08:35:07;;;;;;;11.30;8.53;;;23.60;80.90;;;;;;5085333;28;20451;-59
2023/08/24 08:37:33;;;;;;;12.53;8.37;;;23.70;80.30;;;;;;5087600;28;20166;-59
2023/08/24 08:39:58;;;;;;;12.70;9.00;;;23.70;81.10;;;;;;5087049;28;20518;-60
2023/08/24 08:42:24;;;;;;;11.33;8.80;;;23.70;81.10;;;;;;5086528;28;21204;-62
2023/08/24 08:44:53;;;;;;;12.03;9.03;;;23.70;81.90;;;;;;5084552;28;20178;-62
2023/08/24 08:47:20;;;;;;;11.63;8.90;;;23.70;83.90;;;;;;5086535;28;20220;-59
2023/08/24 08:49:48;;;;;;;15.53;8.87;;;23.70;83.50;;;;;;5090828;28;20518;-59
2023/08/24 08:52:13;;;;;;;19.93;8.43;;;23.70;85.00;;;;;;5087351;28;20424;-61
2023/08/24 08:54:40;;;;;;;17.63;8.77;;;23.80;84.90;;;;;;5086755;28;20473;-61
2023/08/24 08:57:06;;;;;;;14.00;8.80;;;23.90;82.30;;;;;;5083113;28;20260;-62
2023/08/24 08:59:33;;;;;;;12.60;8.00;;;24.00;80.80;;;;;;5085513;28;20424;-60
2023/08/24 09:02:01;;;;;;;11.43;8.03;;;24.20;78.70;;;;;;5086134;28;21044;-64
2023/08/24 09:04:29;;;;;;;16.17;8.27;;;24.40;77.90;;;;;;5087727;28;20543;-63
2023/08/24 09:06:56;;;;;;;16.23;8.67;;;24.60;76.60;;;;;;5086117;28;20447;-60
2023/08/24 09:09:22;;;;;;;16.27;8.57;;;24.70;75.40;;;;;;5086634;28;20458;-61
2023/08/24 09:11:48;;;;;;;17.77;8.30;;;24.80;75.80;;;;;;5088345;28;20532;-60
2023/08/24 09:14:14;;;;;;;9.80;7.87;;;24.90;75.40;;;;;;5090335;28;20462;-60
2023/08/24 09:16:41;;;;;;;13.50;7.87;;;25.10;73.10;;;;;;5084524;28;20719;-62
2023/08/24 09:19:07;;;;;;;15.77;7.93;;;25.20;71.40;;;;;;5088939;28;20165;-62
2023/08/24 09:21:37;;;;;;;14.27;8.20;;;25.30;70.80;;;;;;5094645;28;20496;-60
2023/08/24 09:24:03;;;;;;;11.40;8.20;;;25.40;70.10;;;;;;5093047;28;20459;-60
2023/08/24 09:26:42;;;;;;;10.23;7.50;;;25.50;69.40;;;;;;5090585;28;20410;-60
2023/08/24 09:29:15;;;;;;;13.97;8.60;;;25.70;70.60;;;;;;5087210;28;20419;-60
2023/08/24 09:31:43;;;;;;;13.17;8.20;;;25.90;70.20;;;;;;5086830;28;20427;-61
2023/08/24 09:34:09;;;;;;;15.93;8.53;;;26.00;68.80;;;;;;5086724;28;20458;-63
2023/08/24 09:36:36;;;;;;;10.50;8.20;;;26.20;68.20;;;;;;5089814;28;20903;-60
2023/08/24 09:39:09;;;;;;;15.17;8.10;;;26.30;67.80;;;;;;5090447;28;20419;-60
2023/08/24 09:41:45;;;;;;;15.90;7.93;;;26.50;68.00;;;;;;5091821;28;20959;-63
2023/08/24 09:44:11;;;;;;;13.57;7.80;;;26.60;67.90;;;;;;5086452;28;20518;-60
2023/08/24 09:46:38;;;;;;;14.53;8.00;;;26.70;66.50;;;;;;5089670;28;20320;-59
2023/08/24 09:49:08;;;;;;;14.53;7.70;;;26.90;66.20;;;;;;5085289;28;20170;-59
2023/08/24 09:51:35;;;;;;;12.70;7.50;;;27.00;65.30;;;;;;5087287;28;20574;-60
2023/08/24 09:54:06;;;;;;;14.63;7.27;;;27.10;64.60;;;;;;5090700;28;20252;-62
2023/08/24 09:56:38;;;;;;;18.07;8.57;;;27.20;64.40;;;;;;5090099;28;20265;-65
2023/08/24 09:59:24;;;;;;;15.03;7.13;;;27.30;64.80;;;;;;5090287;28;20175;-60
2023/08/24 10:01:51;;;;;;;9.30;8.30;;;27.50;65.10;;;;;;5092408;28;20206;-61
2023/08/24 10:04:29;;;;;;;12.83;7.27;;;27.70;65.00;;;;;;5089739;28;20173;-62
2023/08/24 10:07:10;;;;;;;9.30;7.83;;;27.90;64.20;;;;;;5086517;28;20258;-63
2023/08/24 10:09:52;;;;;;;13.33;7.17;;;28.00;63.50;;;;;;5086936;28;20195;-61
2023/08/24 10:12:22;;;;;;;12.83;7.67;;;28.10;62.60;;;;;;5088890;28;20169;-60
2023/08/24 10:14:56;;;;;;;10.43;7.27;;;28.20;62.20;;;;;;5089316;28;20674;-59
2023/08/24 10:17:23;;;;;;;14.20;7.33;;;28.40;62.10;;;;;;5086221;28;20543;-63
2023/08/24 10:19:52;;;;;;;10.37;7.13;;;28.50;62.50;;;;;;5087446;28;20166;-61
2023/08/24 10:22:21;;;;;;;12.00;7.75;;;28.60;62.00;;;;;;5089521;28;20199;-60
2023/08/24 10:24:51;;;;;;;12.90;6.82;;;28.70;61.30;;;;;;5087969;28;20177;-62
2023/08/24 10:27:17;;;;;;;11.70;7.20;;;28.80;61.00;;;;;;5087148;28;20221;-60
2023/08/24 10:29:43;;;;;;;15.32;7.45;;;28.90;60.10;;;;;;5088690;28;20249;-61
2023/08/24 10:32:09;;;;;;;11.40;6.70;;;29.10;60.70;;;;;;5081997;28;20650;-60
2023/08/24 10:34:35;;;;;;;11.95;7.80;;;29.20;60.50;;;;;;5079328;28;20357;-63
2023/08/24 10:37:09;;;;;;;13.50;7.93;;;29.30;58.80;;;;;;5078588;28;20186;-63
2023/08/24 10:39:38;;;;;;;13.68;7.70;;;29.50;58.90;;;;;;5077546;28;20253;-60
2023/08/24 10:42:03;;;;;;;13.07;7.50;;;29.50;57.70;;;;;;5085006;28;20275;-61
2023/08/24 10:44:37;;;;;;;14.63;7.18;;;29.60;57.50;;;;;;5081664;28;20722;-62
2023/08/24 10:47:15;;;;;;;20.23;7.10;;;29.80;58.20;;;;;;5081131;28;20180;-61
2023/08/24 10:50:00;;;;;;;18.55;7.20;;;29.90;58.00;;;;;;5068481;28;20644;-66
2023/08/24 10:52:34;;;;;;;11.73;7.10;;;30.00;57.50;;;;;;5077197;28;20177;-62
2023/08/24 10:55:02;;;;;;;15.80;7.40;;;30.10;56.60;;;;;;5082121;28;20271;-63
2023/08/24 10:57:41;;;;;;;12.48;6.93;;;30.30;56.20;;;;;;5086662;28;20178;-62
2023/08/24 11:00:12;;;;;;;11.15;7.18;;;30.40;56.30;;;;;;5084330;28;20190;-61
2023/08/24 11:02:48;;;;;;;15.25;6.60;;;30.50;55.70;;;;;;5093042;28;20314;-62
2023/08/24 11:05:29;;;;;;;18.88;7.25;;;30.70;54.60;;;;;;5076869;28;20172;-63
2023/08/24 11:08:05;;;;;;;17.80;6.90;;;30.70;53.20;;;;;;5081391;28;20724;-61
2023/08/24 11:10:46;;;;;;;13.18;7.00;;;30.90;52.80;;;;;;5086702;28;20802;-60
2023/08/24 11:13:16;;;;;;;15.00;6.25;;;31.00;51.50;;;;;;5089015;28;20195;-60
2023/08/24 11:15:44;;;;;;;18.58;7.18;;;31.20;51.70;;;;;;5086179;28;20246;-60
2023/08/24 11:18:18;;;;;;;14.23;6.95;;;31.40;51.00;;;;;;5079749;28;20260;-60
2023/08/24 11:21:00;;;;;;;16.83;6.45;;;31.50;51.50;;;;;;5084831;28;20271;-60
2023/08/24 11:23:26;;;;;;;16.38;6.65;;;31.70;50.80;;;;;;5086045;28;20181;-60
2023/08/24 11:25:54;;;;;;;14.07;6.88;;;31.80;49.80;;;;;;5081793;28;20236;-59
2023/08/24 11:28:21;;;;;;;17.58;6.70;;;31.80;49.50;;;;;;5088922;28;20894;-59
2023/08/24 11:30:47;;;;;;;18.75;6.57;;;31.90;48.50;;;;;;5087177;28;20209;-61
2023/08/24 11:33:17;;;;;;;13.88;6.53;;;31.90;48.70;;;;;;5088660;28;20262;-60
2023/08/24 11:35:45;;;;;;;22.45;7.20;;;32.00;48.30;;;;;;5082228;28;20270;-61
2023/08/24 11:38:11;;;;;;;10.00;6.20;;;32.10;47.80;;;;;;5090071;28;20174;-60
2023/08/24 11:40:37;;;;;;;13.55;6.43;;;32.10;47.30;;;;;;5087386;28;20194;-61
2023/08/24 11:43:05;;;;;;;21.13;6.47;;;32.20;47.70;;;;;;5073216;28;20202;-60
2023/08/24 11:45:36;;;;;;;18.45;6.60;;;32.20;48.10;;;;;;5083898;28;20223;-59
2023/08/24 11:48:04;;;;;;;17.52;6.45;;;32.20;47.00;;;;;;5086571;28;20187;-59
2023/08/24 11:50:30;;;;;;;10.95;6.40;;;32.10;46.30;;;;;;5087015;28;20284;-60
2023/08/24 11:52:56;;;;;;;15.68;6.65;;;32.00;47.20;;;;;;5086677;28;20610;-60
2023/08/24 11:55:25;;;;;;;15.40;6.25;;;32.10;47.30;;;;;;5086288;28;20222;-59
2023/08/24 11:57:51;;;;;;;19.02;6.82;;;32.20;47.20;;;;;;5091084;28;20258;-58
2023/08/24 12:00:21;;;;;;;10.45;6.55;;;32.30;47.20;;;;;;5087414;28;20199;-60
2023/08/24 12:02:48;;;;;;;15.90;6.38;;;32.20;46.50;;;;;;5089769;28;20207;-58
2023/08/24 12:05:24;;;;;;;17.80;6.65;;;32.20;46.60;;;;;;5089513;28;20178;-61
2023/08/24 12:07:54;;;;;;;12.00;5.70;;;32.40;46.90;;;;;;5087902;28;20240;-59
2023/08/24 12:10:21;;;;;;;14.30;6.75;;;32.60;46.10;;;;;;5084871;28;20229;-60
2023/08/24 12:12:48;;;;;;;14.30;6.30;;;32.80;46.50;;;;;;5088292;28;20210;-60
2023/08/24 12:15:19;;;;;;;18.70;6.13;;;33.10;47.10;;;;;;5089175;28;20196;-59
2023/08/24 12:17:47;;;;;;;12.93;6.15;;;33.40;46.90;;;;;;5086767;28;20177;-60
2023/08/24 12:20:22;;;;;;;13.77;5.60;;;33.60;45.40;;;;;;5084553;28;20193;-59
2023/08/24 12:22:55;;;;;;;16.88;6.15;;;33.80;44.70;;;;;;5084807;28;20175;-60
2023/08/24 12:25:24;;;;;;;13.32;6.18;;;33.90;44.50;;;;;;5088040;28;20259;-61
2023/08/24 12:27:52;;;;;;;13.63;6.60;;;34.10;44.30;;;;;;5086437;28;20208;-60
2023/08/24 12:30:18;;;;;;;12.57;5.93;;;34.20;43.80;;;;;;5085235;28;20197;-60
2023/08/24 12:32:50;;;;;;;15.02;5.88;;;34.30;43.70;;;;;;5087495;28;20186;-61
2023/08/24 12:35:16;;;;;;;12.63;6.25;;;34.40;43.80;;;;;;5087244;28;20628;-61
2023/08/24 12:37:42;;;;;;;14.50;6.25;;;34.50;43.00;;;;;;5081279;28;20165;-61
2023/08/24 12:40:08;;;;;;;17.33;5.97;;;34.50;42.30;;;;;;5080601;28;20210;-60